createdAt,value
2018-07-03T00:00:27.036Z,99063.22
2018-07-03T00:03:01.600Z,99065.45
2018-07-03T00:05:36.156Z,99062.92
2018-07-03T00:08:10.647Z,99068.33
2018-07-03T00:10:45.225Z,99069.88
2018-07-03T00:13:19.857Z,99063.06
2018-07-03T00:15:54.284Z,99059.76
2018-07-03T00:18:28.868Z,99055.25
2018-07-03T00:21:03.523Z,99066.95
2018-07-03T00:23:37.967Z,99057.06
2018-07-03T00:26:12.852Z,99056.05
2018-07-03T00:28:47.490Z,99053.65
2018-07-03T00:31:22.066Z,99045.95
2018-07-03T00:33:56.625Z,99044.58
2018-07-03T00:36:31.079Z,99048.42
2018-07-03T00:39:07.619Z,99047.98
2018-07-03T00:41:42.217Z,99040.50
2018-07-03T00:44:16.759Z,99044.20
2018-07-03T00:46:51.254Z,99052.00
2018-07-03T00:49:25.701Z,99044.64
2018-07-03T00:52:00.198Z,99043.27
2018-07-03T00:54:34.714Z,99036.80
2018-07-03T00:57:09.136Z,99037.02
2018-07-03T00:59:54.948Z,99032.81
2018-07-03T01:02:29.332Z,99029.41
2018-07-03T01:05:03.778Z,99033.34
2018-07-03T01:07:38.301Z,99030.86
2018-07-03T01:10:12.889Z,99033.56
2018-07-03T01:12:47.459Z,99025.09
2018-07-03T01:15:22.132Z,99029.98
2018-07-03T01:17:57.040Z,99032.99
2018-07-03T01:20:31.501Z,99029.84
2018-07-03T01:23:06.480Z,99025.38
2018-07-03T01:25:41.000Z,99029.81
2018-07-03T01:28:15.468Z,99028.83
2018-07-03T01:30:50.344Z,99035.38
2018-07-03T01:33:24.941Z,99032.24
2018-07-03T01:35:59.337Z,99030.67
2018-07-03T01:38:33.866Z,99037.62
2018-07-03T01:41:08.282Z,99042.22
2018-07-03T01:43:42.961Z,99041.34
2018-07-03T01:46:17.576Z,99041.71
2018-07-03T01:48:52.055Z,99050.19
2018-07-03T01:51:26.700Z,99046.06
2018-07-03T01:54:01.395Z,99045.17
2018-07-03T01:56:35.972Z,99038.54
2018-07-03T01:59:10.581Z,99045.05
2018-07-03T02:01:45.146Z,99040.93
2018-07-03T02:04:19.622Z,99030.64
2018-07-03T02:06:54.204Z,99032.49
2018-07-03T02:09:28.587Z,99029.41
2018-07-03T02:12:03.030Z,99029.63
2018-07-03T02:14:37.452Z,99034.09
2018-07-03T02:17:11.876Z,99033.16
2018-07-03T02:19:46.291Z,99032.03
2018-07-03T02:22:20.702Z,99037.41
2018-07-03T02:24:55.119Z,99033.51
2018-07-03T02:27:29.406Z,99026.78
2018-07-03T02:30:03.839Z,99025.06
2018-07-03T02:32:38.124Z,99019.11
2018-07-03T02:35:12.484Z,99024.14
2018-07-03T02:37:46.841Z,99023.00
2018-07-03T02:40:21.051Z,99024.84
2018-07-03T02:42:55.403Z,99021.99
2018-07-03T02:45:29.745Z,99024.16
2018-07-03T02:48:04.104Z,99015.14
2018-07-03T02:50:38.448Z,99023.80
2018-07-03T02:53:12.685Z,99022.43
2018-07-03T02:55:47.147Z,99025.40
2018-07-03T02:58:21.636Z,99020.17
2018-07-03T03:00:55.891Z,99026.08
2018-07-03T03:03:30.131Z,99025.28
2018-07-03T03:06:04.500Z,99021.17
2018-07-03T03:08:39.040Z,99021.40
2018-07-03T03:11:13.482Z,99022.77
2018-07-03T03:13:47.832Z,99023.58
2018-07-03T03:16:22.064Z,99019.35
2018-07-03T03:18:56.465Z,99020.72
2018-07-03T03:21:30.699Z,99015.27
2018-07-03T03:24:04.892Z,99014.34
2018-07-03T03:26:39.120Z,99017.42
2018-07-03T03:29:13.618Z,99018.78
2018-07-03T03:31:47.904Z,99019.92
2018-07-03T03:34:22.335Z,99023.47
2018-07-03T03:36:56.615Z,99017.19
2018-07-03T03:39:30.976Z,99021.77
2018-07-03T03:42:05.449Z,99014.11
2018-07-03T03:44:39.789Z,99017.30
2018-07-03T03:47:14.410Z,99016.86
2018-07-03T03:49:48.898Z,99015.59
2018-07-03T03:52:23.363Z,99023.35
2018-07-03T03:54:58.021Z,99020.27
2018-07-03T03:57:32.623Z,99020.84
2018-07-03T04:00:08.607Z,99020.73
2018-07-03T04:02:43.006Z,99030.10
2018-07-03T04:05:17.575Z,99033.73
2018-07-03T04:07:52.131Z,99040.01
2018-07-03T04:10:26.484Z,99031.69
2018-07-03T04:13:00.893Z,99029.62
2018-07-03T04:15:35.328Z,99035.34
2018-07-03T04:18:09.788Z,99034.09
2018-07-03T04:20:44.403Z,99041.05
2018-07-03T04:23:18.856Z,99043.45
2018-07-03T04:25:53.541Z,99038.99
2018-07-03T04:28:28.176Z,99040.13
2018-07-03T04:31:03.368Z,99042.52
2018-07-03T04:33:38.033Z,99042.12
2018-07-03T04:36:12.574Z,99044.06
2018-07-03T04:38:47.137Z,99051.15
2018-07-03T04:41:21.687Z,99045.55
2018-07-03T04:43:56.287Z,99052.80
2018-07-03T04:46:30.644Z,99055.93
2018-07-03T04:49:05.057Z,99064.39
2018-07-03T04:51:39.648Z,99053.77
2018-07-03T04:54:14.073Z,99062.64
2018-07-03T04:56:48.471Z,99068.05
2018-07-03T04:59:23.225Z,99063.30
2018-07-03T05:01:57.909Z,99071.53
2018-07-03T05:04:32.468Z,99074.71
2018-07-03T05:07:07.128Z,99077.19
2018-07-03T05:09:41.719Z,99077.61
2018-07-03T05:12:16.200Z,99079.12
2018-07-03T05:14:50.675Z,99081.84
2018-07-03T05:17:25.265Z,99080.63
2018-07-03T05:19:59.645Z,99083.77
2018-07-03T05:22:34.083Z,99088.19
2018-07-03T05:25:08.589Z,99087.33
2018-07-03T05:27:42.964Z,99088.50
2018-07-03T05:30:17.434Z,99088.83
2018-07-03T05:32:52.039Z,99081.73
2018-07-03T05:35:26.583Z,99092.31
2018-07-03T05:38:01.025Z,99088.50
2018-07-03T05:40:35.676Z,99087.62
2018-07-03T05:43:10.271Z,99084.50
2018-07-03T05:45:44.876Z,99087.64
2018-07-03T05:48:19.412Z,99092.08
2018-07-03T05:50:53.856Z,99091.05
2018-07-03T05:53:28.622Z,99090.16
2018-07-03T05:56:03.290Z,99096.09
2018-07-03T05:58:37.933Z,99095.83
2018-07-03T06:01:12.649Z,99099.16
2018-07-03T06:03:47.260Z,99100.39
2018-07-03T06:06:21.724Z,99098.75
2018-07-03T06:08:56.317Z,99096.77
2018-07-03T06:11:30.790Z,99101.13
2018-07-03T06:14:05.212Z,99104.73
2018-07-03T06:16:39.684Z,99106.67
2018-07-03T06:19:14.309Z,99107.13
2018-07-03T06:21:48.853Z,99104.35
2018-07-03T06:24:23.368Z,99106.00
2018-07-03T06:26:57.956Z,99111.43
2018-07-03T06:29:32.389Z,99105.45
2018-07-03T06:32:06.980Z,99101.73
2018-07-03T06:34:41.596Z,99098.80
2018-07-03T06:37:16.066Z,99108.00
2018-07-03T06:39:50.493Z,99109.38
2018-07-03T06:42:25.045Z,99102.52
2018-07-03T06:44:59.593Z,99100.46
2018-07-03T06:47:33.840Z,99104.81
2018-07-03T06:50:08.266Z,99103.59
2018-07-03T06:52:42.839Z,99105.35
2018-07-03T06:55:17.173Z,99109.17
2018-07-03T06:57:51.637Z,99118.05
2018-07-03T07:00:26.136Z,99113.22
2018-07-03T07:03:00.592Z,99117.09
2018-07-03T07:05:34.952Z,99110.02
2018-07-03T07:08:09.448Z,99115.53
2018-07-03T07:10:43.692Z,99117.13
2018-07-03T07:13:18.205Z,99113.02
2018-07-03T07:15:52.761Z,99106.14
2018-07-03T07:18:27.280Z,99109.52
2018-07-03T07:21:01.713Z,99111.98
2018-07-03T07:23:36.201Z,99107.30
2018-07-03T07:26:10.837Z,99113.70
2018-07-03T07:28:45.248Z,99105.83
2018-07-03T07:31:19.724Z,99112.56
2018-07-03T07:33:54.115Z,99109.64
2018-07-03T07:36:28.515Z,99121.68
2018-07-03T07:39:02.970Z,99107.16
2018-07-03T07:41:37.485Z,99103.53
2018-07-03T07:44:12.090Z,99104.51
2018-07-03T07:46:53.104Z,99104.71
2018-07-03T07:49:27.456Z,99098.31
2018-07-03T07:52:01.966Z,99099.61
2018-07-03T07:54:36.733Z,99101.28
2018-07-03T07:57:11.176Z,99097.69
2018-07-03T07:59:45.795Z,99092.67
2018-07-03T08:02:20.333Z,99096.09
2018-07-03T08:04:54.747Z,99098.91
2018-07-03T08:07:29.497Z,99100.17
2018-07-03T08:10:04.338Z,99101.64
2018-07-03T08:12:38.880Z,99100.22
2018-07-03T08:15:13.399Z,99093.19
2018-07-03T08:17:47.988Z,99096.79
2018-07-03T08:20:22.351Z,99090.42
2018-07-03T08:22:56.725Z,99087.44
2018-07-03T08:25:31.168Z,99089.03
2018-07-03T08:28:05.656Z,99096.53
2018-07-03T08:30:40.012Z,99099.93
2018-07-03T08:33:15.358Z,99089.86
2018-07-03T08:35:50.013Z,99098.16
2018-07-03T08:38:24.444Z,99095.75
2018-07-03T08:40:58.981Z,99096.84
2018-07-03T08:43:33.529Z,99091.21
2018-07-03T08:46:07.880Z,99090.88
2018-07-03T08:48:42.349Z,99090.75
2018-07-03T08:51:16.749Z,99091.44
2018-07-03T08:53:51.257Z,99096.09
2018-07-03T08:56:25.748Z,99098.26
2018-07-03T08:59:00.121Z,99090.74
2018-07-03T09:01:34.664Z,99099.30
2018-07-03T09:04:09.063Z,99099.84
2018-07-03T09:06:43.613Z,99100.52
2018-07-03T09:09:18.108Z,99097.81
2018-07-03T09:11:52.570Z,99105.63
2018-07-03T09:14:26.864Z,99098.91
2018-07-03T09:17:09.547Z,99102.92
2018-07-03T09:19:43.908Z,99102.72
2018-07-03T09:22:18.384Z,99105.44
2018-07-03T09:24:52.867Z,99102.67
2018-07-03T09:27:27.277Z,99097.12
2018-07-03T09:30:01.609Z,99089.36
2018-07-03T09:32:36.319Z,99097.05
2018-07-03T09:35:10.918Z,99089.62
2018-07-03T09:37:45.288Z,99091.45
2018-07-03T09:40:19.886Z,99090.34
2018-07-03T09:42:54.204Z,99094.33
2018-07-03T09:45:28.706Z,99085.91
2018-07-03T09:48:03.327Z,99085.47
2018-07-03T09:50:37.703Z,99083.49
2018-07-03T09:53:12.280Z,99085.96
2018-07-03T09:55:46.761Z,99092.63
2018-07-03T09:58:21.197Z,99080.72
2018-07-03T10:00:56.781Z,99083.08
2018-07-03T10:03:31.327Z,99073.56
2018-07-03T10:06:05.635Z,99075.69
2018-07-03T10:08:40.088Z,99077.09
2018-07-03T10:11:14.952Z,99077.64
2018-07-03T10:13:49.360Z,99078.48
2018-07-03T10:16:23.665Z,99083.51
2018-07-03T10:18:58.209Z,99091.12
2018-07-03T10:21:32.559Z,99088.32
2018-07-03T10:24:07.085Z,99083.84
2018-07-03T10:26:41.444Z,99082.42
2018-07-03T10:29:15.818Z,99076.23
2018-07-03T10:31:50.264Z,99072.64
2018-07-03T10:34:24.814Z,99071.84
2018-07-03T10:36:59.460Z,99080.33
2018-07-03T10:39:33.863Z,99075.69
2018-07-03T10:42:08.395Z,99076.48
2018-07-03T10:44:42.922Z,99078.42
2018-07-03T10:47:17.302Z,99072.72
2018-07-03T10:49:51.740Z,99074.30
2018-07-03T10:52:26.266Z,99066.75
2018-07-03T10:55:00.620Z,99075.00
2018-07-03T10:57:35.060Z,99065.09
2018-07-03T11:00:09.537Z,99064.74
2018-07-03T11:02:44.617Z,99071.45
2018-07-03T11:05:19.073Z,99064.80
2018-07-03T11:07:53.393Z,99062.69
2018-07-03T11:10:28.160Z,99061.94
2018-07-03T11:13:02.568Z,99060.45
2018-07-03T11:15:37.034Z,99061.56
2018-07-03T11:18:11.524Z,99055.85
2018-07-03T11:20:45.889Z,99063.51
2018-07-03T11:23:20.221Z,99061.34
2018-07-03T11:25:54.629Z,99055.37
2018-07-03T11:28:29.040Z,99044.44
2018-07-03T11:31:03.563Z,99053.34
2018-07-03T11:33:37.959Z,99046.27
2018-07-03T11:36:12.444Z,99040.11
2018-07-03T11:38:46.877Z,99038.17
2018-07-03T11:41:21.224Z,99043.95
2018-07-03T11:43:55.640Z,99040.37
2018-07-03T11:46:30.050Z,99036.41
2018-07-03T11:49:04.423Z,99031.98
2018-07-03T11:51:38.808Z,99037.38
2018-07-03T11:54:13.331Z,99037.57
2018-07-03T11:56:47.774Z,99039.54
2018-07-03T11:59:22.216Z,99034.34
2018-07-03T12:01:56.608Z,99032.86
2018-07-03T12:04:31.192Z,99030.29
2018-07-03T12:07:07.763Z,99018.11
2018-07-03T12:09:42.096Z,99019.53
2018-07-03T12:12:16.740Z,99021.25
2018-07-03T12:14:51.433Z,99016.05
2018-07-03T12:17:26.285Z,99015.29
2018-07-03T12:20:00.832Z,99009.90
2018-07-03T12:22:35.761Z,99008.66
2018-07-03T12:25:10.488Z,99015.77
2018-07-03T12:27:45.034Z,99012.41
2018-07-03T12:30:19.510Z,99010.12
2018-07-03T12:32:53.945Z,99008.49
2018-07-03T12:35:28.378Z,99014.73
2018-07-03T12:38:02.958Z,99005.84
2018-07-03T12:40:38.207Z,99008.09
2018-07-03T12:43:25.064Z,99013.45
2018-07-03T12:46:07.937Z,99008.72
2018-07-03T12:48:42.345Z,99007.91
2018-07-03T12:51:16.812Z,99007.05
2018-07-03T12:53:51.448Z,99004.84
2018-07-03T12:56:25.971Z,99000.90
2018-07-03T12:59:00.400Z,99002.58
2018-07-03T13:01:34.764Z,99000.34
2018-07-03T13:04:09.288Z,98996.09
2018-07-03T13:06:43.685Z,98989.27
2018-07-03T13:09:18.026Z,98984.52
2018-07-03T13:11:52.464Z,98998.55
2018-07-03T13:14:27.181Z,98990.89
2018-07-03T13:17:01.729Z,98988.34
2018-07-03T13:19:36.400Z,98985.30
2018-07-03T13:22:10.940Z,98982.52
2018-07-03T13:24:45.285Z,98979.92
2018-07-03T13:27:19.676Z,98978.64
2018-07-03T13:29:54.276Z,98986.87
2018-07-03T13:32:28.733Z,98983.23
2018-07-03T13:35:04.152Z,98979.13
2018-07-03T13:37:38.777Z,98973.45
2018-07-03T13:40:13.289Z,98974.00
2018-07-03T13:42:47.925Z,98973.91
2018-07-03T13:45:22.520Z,98979.38
2018-07-03T13:47:56.963Z,98969.60
2018-07-03T13:50:31.352Z,98973.42
2018-07-03T13:53:05.775Z,98971.59
2018-07-03T13:55:40.153Z,98969.42
2018-07-03T13:58:14.657Z,98964.20
2018-07-03T14:00:49.312Z,98966.92
2018-07-03T14:03:23.944Z,98964.47
2018-07-03T14:05:58.473Z,98963.07
2018-07-03T14:08:32.828Z,98958.32
2018-07-03T14:11:07.650Z,98960.14
2018-07-03T14:13:42.164Z,98952.97
2018-07-03T14:16:16.488Z,98954.76
2018-07-03T14:18:50.824Z,98950.86
2018-07-03T14:21:25.198Z,98944.59
2018-07-03T14:30:01.178Z,98941.56
2018-07-03T14:32:35.545Z,98939.66
2018-07-03T14:35:10.004Z,98940.53
2018-07-03T14:37:44.349Z,98934.84
2018-07-03T14:40:18.874Z,98935.32
2018-07-03T14:42:53.605Z,98938.27
2018-07-03T14:45:28.162Z,98931.78
2018-07-03T14:48:02.660Z,98933.52
2018-07-03T14:50:37.168Z,98935.73
2018-07-03T14:53:11.500Z,98943.87
2018-07-03T14:55:46.048Z,98938.06
2018-07-03T14:58:20.451Z,98934.81
2018-07-03T15:00:55.101Z,98934.48
2018-07-03T15:03:29.548Z,98928.14
2018-07-03T15:06:04.161Z,98930.76
2018-07-03T15:08:38.621Z,98926.86
2018-07-03T15:11:13.024Z,98914.30
2018-07-03T15:13:47.536Z,98926.70
2018-07-03T15:16:22.036Z,98913.55
2018-07-03T15:19:01.857Z,98904.56
2018-07-03T15:21:36.380Z,98913.48
2018-07-03T15:24:10.713Z,98909.42
2018-07-03T15:26:45.159Z,98913.61
2018-07-03T15:29:19.565Z,98911.81
2018-07-03T15:31:53.965Z,98910.75
2018-07-03T15:34:28.252Z,98910.70
2018-07-03T15:37:02.680Z,98907.34
2018-07-03T15:39:37.226Z,98911.87
2018-07-03T15:42:11.556Z,98903.03
2018-07-03T15:44:57.396Z,98901.40
2018-07-03T15:47:31.802Z,98891.07
2018-07-03T15:50:07.255Z,98898.77
2018-07-03T15:52:41.784Z,98891.60
2018-07-03T15:55:16.198Z,98893.17
2018-07-03T15:57:50.618Z,98893.19
2018-07-03T16:00:25.053Z,98893.02
2018-07-03T16:03:10.810Z,98893.05
2018-07-03T16:06:59.052Z,98891.71
2018-07-03T16:09:33.355Z,98884.39
2018-07-03T16:12:07.856Z,98889.37
2018-07-03T16:14:42.347Z,98879.05
2018-07-03T16:17:16.918Z,98876.48
2018-07-03T16:19:56.776Z,98873.91
2018-07-03T16:22:31.517Z,98883.59
2018-07-03T16:25:06.710Z,98881.19
2018-07-03T16:27:41.004Z,98876.77
2018-07-03T16:30:15.428Z,98875.67
2018-07-03T16:32:49.859Z,98879.68
2018-07-03T16:35:24.298Z,98872.63
2018-07-03T16:37:58.877Z,98873.30
2018-07-03T16:40:33.272Z,98879.27
2018-07-03T16:43:07.731Z,98878.27
2018-07-03T16:45:42.548Z,98884.03
2018-07-03T16:48:17.183Z,98874.57
2018-07-03T16:50:51.759Z,98872.86
2018-07-03T16:53:26.265Z,98880.77
2018-07-03T16:56:00.737Z,98873.78
2018-07-03T16:58:35.239Z,98874.14
2018-07-03T17:01:10.129Z,98881.93
2018-07-03T17:03:44.468Z,98874.52
2018-07-03T17:06:19.076Z,98873.67
2018-07-03T17:08:53.544Z,98865.42
2018-07-03T17:11:28.087Z,98873.00
2018-07-03T17:14:02.704Z,98866.94
2018-07-03T17:16:37.436Z,98867.54
2018-07-03T17:19:17.317Z,98868.81
2018-07-03T17:21:51.880Z,98863.21
2018-07-03T17:24:26.552Z,98860.84
2018-07-03T17:27:01.072Z,98868.52
2018-07-03T17:29:35.824Z,98861.48
2018-07-03T17:32:10.180Z,98859.11
2018-07-03T17:34:44.509Z,98862.45
2018-07-03T17:37:18.969Z,98852.13
2018-07-03T17:40:04.768Z,98852.94
2018-07-03T17:43:54.416Z,98849.86
2018-07-03T17:46:28.896Z,98846.59
2018-07-03T17:49:03.419Z,98845.60
2018-07-03T17:51:38.111Z,98849.96
2018-07-03T17:54:12.433Z,98853.69
2018-07-03T17:56:46.886Z,98848.38
2018-07-03T17:59:21.412Z,98844.56
2018-07-03T18:01:55.947Z,98841.55
2018-07-03T18:04:30.344Z,98841.41
2018-07-03T18:07:04.763Z,98842.66
2018-07-03T18:09:39.132Z,98837.25
2018-07-03T18:12:13.705Z,98846.42
2018-07-03T18:14:48.138Z,98837.18
2018-07-03T18:17:22.596Z,98843.95
2018-07-03T18:19:56.952Z,98844.63
2018-07-03T18:22:31.345Z,98844.70
2018-07-03T18:25:06.036Z,98842.19
2018-07-03T18:27:40.388Z,98843.53
2018-07-03T18:30:14.838Z,98843.91
2018-07-03T18:32:49.197Z,98846.16
2018-07-03T18:35:23.686Z,98843.14
2018-07-03T18:37:58.441Z,98847.00
2018-07-03T18:40:32.888Z,98850.66
2018-07-03T18:43:07.439Z,98854.50
2018-07-03T18:45:41.997Z,98849.78
2018-07-03T18:48:16.428Z,98855.01
2018-07-03T18:50:50.946Z,98858.19
2018-07-03T18:53:25.625Z,98862.80
2018-07-03T18:56:00.140Z,98861.02
2018-07-03T18:58:34.589Z,98864.61
2018-07-03T19:01:09.175Z,98855.73
2018-07-03T19:03:43.762Z,98862.72
2018-07-03T19:06:18.326Z,98867.73
2018-07-03T19:08:52.997Z,98866.75
2018-07-03T19:11:27.457Z,98868.77
2018-07-03T19:14:01.950Z,98869.73
2018-07-03T19:16:36.347Z,98863.00
2018-07-03T19:19:10.829Z,98862.41
2018-07-03T19:21:45.502Z,98858.66
2018-07-03T19:24:20.020Z,98858.92
2018-07-03T19:26:54.533Z,98862.88
2018-07-03T19:29:29.001Z,98862.66
2018-07-03T19:32:03.532Z,98856.54
2018-07-03T19:34:38.021Z,98857.30
2018-07-03T19:37:12.667Z,98857.70
2018-07-03T19:39:47.412Z,98860.47
2018-07-03T19:42:21.999Z,98859.05
2018-07-03T19:44:56.408Z,98866.97
2018-07-03T19:47:31.009Z,98862.39
2018-07-03T19:50:05.604Z,98868.28
2018-07-03T19:52:40.210Z,98872.05
2018-07-03T19:55:14.812Z,98872.03
2018-07-03T19:57:49.284Z,98864.52
2018-07-03T20:00:23.661Z,98862.93
2018-07-03T20:02:58.076Z,98875.58
2018-07-03T20:05:32.569Z,98868.02
2018-07-03T20:08:07.444Z,98873.34
2018-07-03T20:10:41.859Z,98881.78
2018-07-03T20:13:17.417Z,98881.77
2018-07-03T20:15:52.029Z,98882.30
2018-07-03T20:18:26.640Z,98885.59
2018-07-03T20:21:01.207Z,98881.70
2018-07-03T20:23:35.940Z,98883.30
2018-07-03T20:26:10.852Z,98878.73
2018-07-03T20:28:45.248Z,98886.52
2018-07-03T20:31:19.644Z,98890.62
2018-07-03T20:33:54.035Z,98891.69
2018-07-03T20:36:28.634Z,98895.64
2018-07-03T20:39:04.703Z,98897.41
2018-07-03T20:41:39.437Z,98891.27
2018-07-03T20:44:14.066Z,98891.02
2018-07-03T20:46:48.492Z,98894.57
2018-07-03T20:49:22.969Z,98901.81
2018-07-03T20:51:57.592Z,98900.69
2018-07-03T20:54:32.077Z,98900.72
2018-07-03T20:57:06.639Z,98893.06
2018-07-03T20:59:41.316Z,98898.50
2018-07-03T21:02:15.744Z,98896.78
2018-07-03T21:04:50.227Z,98898.75
2018-07-03T21:07:24.848Z,98896.55
2018-07-03T21:09:59.429Z,98901.02
2018-07-03T21:12:34.005Z,98906.30
2018-07-03T21:15:08.592Z,98895.33
2018-07-03T21:17:43.053Z,98897.00
2018-07-03T21:20:17.513Z,98892.68
2018-07-03T21:22:51.944Z,98896.93
2018-07-03T21:25:26.300Z,98891.41
2018-07-03T21:28:00.800Z,98892.39
2018-07-03T21:30:35.288Z,98891.02
2018-07-03T21:33:09.658Z,98887.82
2018-07-03T21:35:44.298Z,98879.67
2018-07-03T21:38:18.918Z,98873.61
2018-07-03T21:40:53.505Z,98881.89
2018-07-03T21:43:28.136Z,98883.72
2018-07-03T21:46:02.563Z,98886.38
2018-07-03T21:48:37.176Z,98888.31
2018-07-03T21:51:11.725Z,98891.39
2018-07-03T21:53:46.330Z,98890.67
2018-07-03T21:56:20.969Z,98893.83
2018-07-03T21:58:55.438Z,98891.38
2018-07-03T22:01:29.838Z,98891.98
2018-07-03T22:04:04.378Z,98891.86
2018-07-03T22:06:38.984Z,98897.77
2018-07-03T22:09:14.117Z,98894.23
2018-07-03T22:11:48.752Z,98895.74
2018-07-03T22:14:23.296Z,98893.67
2018-07-03T22:16:57.817Z,98892.22
2018-07-03T22:19:32.378Z,98899.65
2018-07-03T22:22:07.082Z,98898.92
2018-07-03T22:24:41.673Z,98902.48
2018-07-03T22:27:16.246Z,98902.48
2018-07-03T22:29:50.793Z,98902.30
2018-07-03T22:32:25.212Z,98900.71
2018-07-03T22:34:59.749Z,98897.55
2018-07-03T22:37:34.257Z,98902.11
2018-07-03T22:40:08.689Z,98897.75
2018-07-03T22:42:43.389Z,98893.59
2018-07-03T22:45:17.769Z,98896.55
2018-07-03T22:47:52.246Z,98898.28
2018-07-03T22:50:26.593Z,98887.77
2018-07-03T22:53:01.933Z,98889.50
2018-07-03T22:55:36.304Z,98885.93
2018-07-03T22:58:10.896Z,98888.09
2018-07-03T23:00:45.507Z,98889.09
2018-07-03T23:03:19.949Z,98893.04
2018-07-03T23:05:54.313Z,98889.25
2018-07-03T23:08:28.701Z,98889.23
2018-07-03T23:11:03.133Z,98886.48
2018-07-03T23:13:37.541Z,98886.69
2018-07-03T23:16:12.185Z,98876.98
2018-07-03T23:18:46.796Z,98878.15
2018-07-03T23:21:21.197Z,98882.04
2018-07-03T23:23:55.782Z,98883.03
2018-07-03T23:26:30.415Z,98886.83
2018-07-03T23:29:04.923Z,98885.78
2018-07-03T23:31:39.530Z,98883.19
2018-07-03T23:34:14.057Z,98883.39
2018-07-03T23:36:48.633Z,98881.21
2018-07-03T23:39:23.164Z,98883.58
2018-07-03T23:41:57.789Z,98888.46
2018-07-03T23:44:32.576Z,98885.58
2018-07-03T23:47:18.359Z,98885.16
2018-07-03T23:50:04.113Z,98879.41
2018-07-03T23:52:50.140Z,98882.16
2018-07-03T23:55:35.801Z,98880.30
2018-07-03T23:58:21.628Z,98881.86
